sensor_id;sensor_type;location;lat;lon;timestamp;P1;durP1;ratioP1;P2;durP2;ratioP2
30458;SDS011;17254;50.976;7.034;2023-04-08T00:00:00;40.63;;;22.23;;
30458;SDS011;17254;50.976;7.034;2023-04-08T00:00:06;40.00;;;22.33;;
30458;SDS011;17254;50.976;7.034;2023-04-08T00:00:15;37.41;;;22.11;;
30458;SDS011;17254;50.976;7.034;2023-04-08T00:00:22;36.45;;;22.00;;
30458;SDS011;17254;50.976;7.034;2023-04-08T00:00:28;36.10;;;21.76;;
30458;SDS011;17254;50.976;7.034;2023-04-08T00:00:34;35.40;;;21.55;;
30458;SDS011;17254;50.976;7.034;2023-04-08T00:00:41;36.40;;;21.33;;
30458;SDS011;17254;50.976;7.034;2023-04-08T00:00:48;38.04;;;21.34;;
30458;SDS011;17254;50.976;7.034;2023-04-08T00:00:54;40.15;;;21.85;;
30458;SDS011;17254;50.976;7.034;2023-04-08T00:01:00;41.06;;;22.74;;
30458;SDS011;17254;50.976;7.034;2023-04-08T00:01:06;40.87;;;22.90;;
30458;SDS011;17254;50.976;7.034;2023-04-08T00:01:12;40.75;;;23.10;;
30458;SDS011;17254;50.976;7.034;2023-04-08T00:01:18;42.03;;;23.57;;
30458;SDS011;17254;50.976;7.034;2023-04-08T00:01:24;41.53;;;23.05;;
30458;SDS011;17254;50.976;7.034;2023-04-08T00:01:30;40.22;;;22.20;;
30458;SDS011;17254;50.976;7.034;2023-04-08T00:01:36;41.25;;;22.58;;
30458;SDS011;17254;50.976;7.034;2023-04-08T00:01:42;42.77;;;22.93;;
30458;SDS011;17254;50.976;7.034;2023-04-08T00:01:49;40.72;;;22.56;;
30458;SDS011;17254;50.976;7.034;2023-04-08T00:01:56;41.34;;;22.78;;
30458;SDS011;17254;50.976;7.034;2023-04-08T00:02:02;41.33;;;22.70;;
30458;SDS011;17254;50.976;7.034;2023-04-08T00:02:08;40.88;;;22.70;;
30458;SDS011;17254;50.976;7.034;2023-04-08T00:02:14;38.63;;;22.33;;
30458;SDS011;17254;50.976;7.034;2023-04-08T00:02:20;38.95;;;22.45;;
30458;SDS011;17254;50.976;7.034;2023-04-08T00:02:26;36.90;;;22.10;;
30458;SDS011;17254;50.976;7.034;2023-04-08T00:02:32;36.53;;;22.13;;
30458;SDS011;17254;50.976;7.034;2023-04-08T00:02:38;35.28;;;21.56;;
30458;SDS011;17254;50.976;7.034;2023-04-08T00:02:44;35.47;;;21.70;;
30458;SDS011;17254;50.976;7.034;2023-04-08T00:02:50;35.08;;;21.77;;
30458;SDS011;17254;50.976;7.034;2023-04-08T00:02:56;35.27;;;22.20;;
30458;SDS011;17254;50.976;7.034;2023-04-08T00:03:02;36.13;;;22.45;;
30458;SDS011;17254;50.976;7.034;2023-04-08T00:03:09;36.80;;;23.04;;
30458;SDS011;17254;50.976;7.034;2023-04-08T00:03:15;36.95;;;22.80;;
30458;SDS011;17254;50.976;7.034;2023-04-08T00:03:22;38.96;;;22.70;;
30458;SDS011;17254;50.976;7.034;2023-04-08T00:03:28;40.72;;;22.73;;
30458;SDS011;17254;50.976;7.034;2023-04-08T00:03:34;41.80;;;22.73;;
30458;SDS011;17254;50.976;7.034;2023-04-08T00:03:40;42.77;;;22.33;;
30458;SDS011;17254;50.976;7.034;2023-04-08T00:03:47;44.93;;;22.50;;
30458;SDS011;17254;50.976;7.034;2023-04-08T00:03:53;43.20;;;22.45;;
30458;SDS011;17254;50.976;7.034;2023-04-08T00:03:59;43.77;;;22.30;;
30458;SDS011;17254;50.976;7.034;2023-04-08T00:04:05;43.28;;;21.90;;
30458;SDS011;17254;50.976;7.034;2023-04-08T00:04:13;42.60;;;22.00;;
30458;SDS011;17254;50.976;7.034;2023-04-08T00:04:19;41.85;;;22.55;;
30458;SDS011;17254;50.976;7.034;2023-04-08T00:04:25;40.67;;;22.33;;
30458;SDS011;17254;50.976;7.034;2023-04-08T00:04:32;40.63;;;22.53;;
30458;SDS011;17254;50.976;7.034;2023-04-08T00:04:38;40.14;;;22.62;;
30458;SDS011;17254;50.976;7.034;2023-04-08T00:04:44;39.43;;;22.10;;
30458;SDS011;17254;50.976;7.034;2023-04-08T00:04:50;39.30;;;22.10;;
30458;SDS011;17254;50.976;7.034;2023-04-08T00:04:56;39.50;;;22.47;;
30458;SDS011;17254;50.976;7.034;2023-04-08T00:05:02;39.55;;;22.45;;
30458;SDS011;17254;50.976;7.034;2023-04-08T00:05:09;40.30;;;22.68;;
30458;SDS011;17254;50.976;7.034;2023-04-08T00:05:15;40.20;;;22.35;;
30458;SDS011;17254;50.976;7.034;2023-04-08T00:05:21;41.13;;;22.37;;
30458;SDS011;17254;50.976;7.034;2023-04-08T00:05:27;41.58;;;22.50;;
30458;SDS011;17254;50.976;7.034;2023-04-08T00:05:33;41.87;;;22.80;;
30458;SDS011;17254;50.976;7.034;2023-04-08T00:05:39;42.47;;;22.67;;
30458;SDS011;17254;50.976;7.034;2023-04-08T00:05:45;42.33;;;22.75;;
30458;SDS011;17254;50.976;7.034;2023-04-08T00:05:51;42.38;;;22.88;;
30458;SDS011;17254;50.976;7.034;2023-04-08T00:05:57;42.05;;;22.63;;
30458;SDS011;17254;50.976;7.034;2023-04-08T00:06:06;40.63;;;22.23;;
30458;SDS011;17254;50.976;7.034;2023-04-08T00:06:12;40.05;;;22.15;;
30458;SDS011;17254;50.976;7.034;2023-04-08T00:06:18;40.22;;;22.42;;
30458;SDS011;17254;50.976;7.034;2023-04-08T00:06:24;39.70;;;22.30;;
30458;SDS011;17254;50.976;7.034;2023-04-08T00:06:31;39.83;;;21.97;;
30458;SDS011;17254;50.976;7.034;2023-04-08T00:06:37;41.00;;;22.33;;
30458;SDS011;17254;50.976;7.034;2023-04-08T00:06:43;39.85;;;22.40;;
30458;SDS011;17254;50.976;7.034;2023-04-08T00:06:49;39.22;;;22.15;;
30458;SDS011;17254;50.976;7.034;2023-04-08T00:06:55;39.13;;;22.10;;
30458;SDS011;17254;50.976;7.034;2023-04-08T00:07:01;39.03;;;22.35;;
30458;SDS011;17254;50.976;7.034;2023-04-08T00:07:07;38.95;;;22.15;;
30458;SDS011;17254;50.976;7.034;2023-04-08T00:07:13;40.15;;;22.10;;
30458;SDS011;17254;50.976;7.034;2023-04-08T00:07:20;39.23;;;22.10;;
30458;SDS011;17254;50.976;7.034;2023-04-08T00:07:26;38.45;;;22.25;;
30458;SDS011;17254;50.976;7.034;2023-04-08T00:07:32;38.05;;;22.40;;
30458;SDS011;17254;50.976;7.034;2023-04-08T00:07:39;38.23;;;22.53;;
30458;SDS011;17254;50.976;7.034;2023-04-08T00:07:45;39.58;;;22.80;;
30458;SDS011;17254;50.976;7.034;2023-04-08T00:07:51;40.70;;;22.73;;
30458;SDS011;17254;50.976;7.034;2023-04-08T00:07:57;42.00;;;23.00;;
30458;SDS011;17254;50.976;7.034;2023-04-08T00:08:04;42.80;;;23.30;;
30458;SDS011;17254;50.976;7.034;2023-04-08T00:08:10;43.15;;;23.08;;
30458;SDS011;17254;50.976;7.034;2023-04-08T00:08:17;44.30;;;23.53;;
30458;SDS011;17254;50.976;7.034;2023-04-08T00:08:23;45.63;;;24.17;;
30458;SDS011;17254;50.976;7.034;2023-04-08T00:08:29;44.95;;;23.88;;
30458;SDS011;17254;50.976;7.034;2023-04-08T00:08:35;44.17;;;23.70;;
30458;SDS011;17254;50.976;7.034;2023-04-08T00:08:41;43.55;;;24.20;;
30458;SDS011;17254;50.976;7.034;2023-04-08T00:08:47;42.40;;;24.20;;
30458;SDS011;17254;50.976;7.034;2023-04-08T00:08:53;43.03;;;23.85;;
30458;SDS011;17254;50.976;7.034;2023-04-08T00:08:59;44.73;;;24.37;;
30458;SDS011;17254;50.976;7.034;2023-04-08T00:09:06;45.98;;;24.78;;
30458;SDS011;17254;50.976;7.034;2023-04-08T00:09:12;46.67;;;25.02;;
30458;SDS011;17254;50.976;7.034;2023-04-08T00:09:19;46.70;;;24.65;;
30458;SDS011;17254;50.976;7.034;2023-04-08T00:09:25;44.40;;;24.60;;
30458;SDS011;17254;50.976;7.034;2023-04-08T00:09:31;44.00;;;24.33;;
30458;SDS011;17254;50.976;7.034;2023-04-08T00:09:37;43.63;;;23.87;;
30458;SDS011;17254;50.976;7.034;2023-04-08T00:09:43;43.92;;;24.00;;
30458;SDS011;17254;50.976;7.034;2023-04-08T00:09:49;44.92;;;24.67;;
30458;SDS011;17254;50.976;7.034;2023-04-08T00:09:55;46.13;;;24.95;;
30458;SDS011;17254;50.976;7.034;2023-04-08T00:10:01;47.27;;;25.23;;
30458;SDS011;17254;50.976;7.034;2023-04-08T00:10:08;48.97;;;25.55;;
30458;SDS011;17254;50.976;7.034;2023-04-08T00:10:14;48.77;;;25.20;;
30458;SDS011;17254;50.976;7.034;2023-04-08T00:10:22;48.02;;;25.08;;
30458;SDS011;17254;50.976;7.034;2023-04-08T00:10:29;49.90;;;24.90;;
30458;SDS011;17254;50.976;7.034;2023-04-08T00:10:35;48.93;;;24.37;;
30458;SDS011;17254;50.976;7.034;2023-04-08T00:10:41;47.87;;;24.00;;
30458;SDS011;17254;50.976;7.034;2023-04-08T00:10:47;49.03;;;24.00;;
30458;SDS011;17254;50.976;7.034;2023-04-08T00:10:53;49.45;;;23.90;;
30458;SDS011;17254;50.976;7.034;2023-04-08T00:10:59;47.35;;;23.58;;
30458;SDS011;17254;50.976;7.034;2023-04-08T00:11:05;45.60;;;23.40;;
30458;SDS011;17254;50.976;7.034;2023-04-08T00:11:11;46.42;;;23.52;;
30458;SDS011;17254;50.976;7.034;2023-04-08T00:11:17;45.83;;;24.00;;
30458;SDS011;17254;50.976;7.034;2023-04-08T00:11:23;45.15;;;24.30;;
30458;SDS011;17254;50.976;7.034;2023-04-08T00:11:30;47.22;;;24.45;;
30458;SDS011;17254;50.976;7.034;2023-04-08T00:11:35;48.33;;;24.63;;
30458;SDS011;17254;50.976;7.034;2023-04-08T00:11:42;46.87;;;24.63;;
30458;SDS011;17254;50.976;7.034;2023-04-08T00:11:48;45.72;;;24.17;;
30458;SDS011;17254;50.976;7.034;2023-04-08T00:11:54;45.00;;;23.45;;
30458;SDS011;17254;50.976;7.034;2023-04-08T00:12:01;41.70;;;23.30;;
30458;SDS011;17254;50.976;7.034;2023-04-08T00:12:07;41.42;;;23.33;;
30458;SDS011;17254;50.976;7.034;2023-04-08T00:12:13;43.30;;;23.25;;
30458;SDS011;17254;50.976;7.034;2023-04-08T00:12:19;43.50;;;23.20;;
30458;SDS011;17254;50.976;7.034;2023-04-08T00:12:25;45.34;;;24.20;;
30458;SDS011;17254;50.976;7.034;2023-04-08T00:12:32;46.80;;;24.30;;
30458;SDS011;17254;50.976;7.034;2023-04-08T00:12:38;46.65;;;24.13;;
30458;SDS011;17254;50.976;7.034;2023-04-08T00:12:45;47.00;;;24.60;;
30458;SDS011;17254;50.976;7.034;2023-04-08T00:12:52;46.33;;;24.23;;
30458;SDS011;17254;50.976;7.034;2023-04-08T00:12:59;46.46;;;24.20;;
30458;SDS011;17254;50.976;7.034;2023-04-08T00:13:05;46.30;;;24.55;;
30458;SDS011;17254;50.976;7.034;2023-04-08T00:13:11;44.50;;;24.17;;
30458;SDS011;17254;50.976;7.034;2023-04-08T00:13:18;45.43;;;24.20;;
30458;SDS011;17254;50.976;7.034;2023-04-08T00:13:25;45.13;;;23.97;;
30458;SDS011;17254;50.976;7.034;2023-04-08T00:13:31;43.65;;;23.90;;
30458;SDS011;17254;50.976;7.034;2023-04-08T00:13:37;42.42;;;23.63;;
30458;SDS011;17254;50.976;7.034;2023-04-08T00:13:44;43.90;;;23.67;;
30458;SDS011;17254;50.976;7.034;2023-04-08T00:13:50;42.03;;;23.73;;
30458;SDS011;17254;50.976;7.034;2023-04-08T00:13:55;43.05;;;23.30;;
30458;SDS011;17254;50.976;7.034;2023-04-08T00:14:02;42.22;;;23.00;;
30458;SDS011;17254;50.976;7.034;2023-04-08T00:14:08;42.50;;;23.08;;
30458;SDS011;17254;50.976;7.034;2023-04-08T00:14:14;42.67;;;23.20;;
30458;SDS011;17254;50.976;7.034;2023-04-08T00:14:20;43.60;;;23.02;;
30458;SDS011;17254;50.976;7.034;2023-04-08T00:14:26;44.58;;;23.63;;
30458;SDS011;17254;50.976;7.034;2023-04-08T00:14:32;47.80;;;24.35;;
30458;SDS011;17254;50.976;7.034;2023-04-08T00:14:39;47.86;;;24.56;;
30458;SDS011;17254;50.976;7.034;2023-04-08T00:14:45;47.03;;;25.13;;
30458;SDS011;17254;50.976;7.034;2023-04-08T00:14:51;45.63;;;24.70;;
30458;SDS011;17254;50.976;7.034;2023-04-08T00:14:57;44.40;;;24.15;;
30458;SDS011;17254;50.976;7.034;2023-04-08T00:15:04;43.88;;;24.13;;
30458;SDS011;17254;50.976;7.034;2023-04-08T00:15:11;44.25;;;23.75;;
30458;SDS011;17254;50.976;7.034;2023-04-08T00:15:17;43.03;;;23.17;;
30458;SDS011;17254;50.976;7.034;2023-04-08T00:15:23;43.58;;;23.50;;
30458;SDS011;17254;50.976;7.034;2023-04-08T00:15:29;42.70;;;23.48;;
30458;SDS011;17254;50.976;7.034;2023-04-08T00:15:35;41.67;;;23.57;;
30458;SDS011;17254;50.976;7.034;2023-04-08T00:15:41;41.65;;;23.35;;
30458;SDS011;17254;50.976;7.034;2023-04-08T00:15:47;41.60;;;23.40;;
30458;SDS011;17254;50.976;7.034;2023-04-08T00:15:53;41.72;;;23.90;;
30458;SDS011;17254;50.976;7.034;2023-04-08T00:15:59;40.95;;;24.23;;
30458;SDS011;17254;50.976;7.034;2023-04-08T00:16:05;41.90;;;24.17;;
30458;SDS011;17254;50.976;7.034;2023-04-08T00:16:12;42.77;;;24.77;;
30458;SDS011;17254;50.976;7.034;2023-04-08T00:16:19;45.14;;;25.14;;
30458;SDS011;17254;50.976;7.034;2023-04-08T00:16:26;45.63;;;25.53;;
30458;SDS011;17254;50.976;7.034;2023-04-08T00:16:32;45.78;;;25.25;;
30458;SDS011;17254;50.976;7.034;2023-04-08T00:16:38;46.20;;;25.83;;
30458;SDS011;17254;50.976;7.034;2023-04-08T00:16:45;44.52;;;25.56;;
30458;SDS011;17254;50.976;7.034;2023-04-08T00:16:51;43.72;;;25.48;;
30458;SDS011;17254;50.976;7.034;2023-04-08T00:16:57;42.50;;;24.93;;
30458;SDS011;17254;50.976;7.034;2023-04-08T00:17:03;43.03;;;25.35;;
30458;SDS011;17254;50.976;7.034;2023-04-08T00:17:08;42.95;;;24.88;;
30458;SDS011;17254;50.976;7.034;2023-04-08T00:17:14;42.83;;;24.63;;
30458;SDS011;17254;50.976;7.034;2023-04-08T00:17:22;42.60;;;24.46;;
30458;SDS011;17254;50.976;7.034;2023-04-08T00:17:27;43.03;;;24.83;;
30458;SDS011;17254;50.976;7.034;2023-04-08T00:17:33;43.45;;;24.40;;
30458;SDS011;17254;50.976;7.034;2023-04-08T00:17:40;43.90;;;24.60;;
30458;SDS011;17254;50.976;7.034;2023-04-08T00:17:47;45.23;;;25.33;;
30458;SDS011;17254;50.976;7.034;2023-04-08T00:17:52;45.30;;;25.17;;
30458;SDS011;17254;50.976;7.034;2023-04-08T00:17:58;46.50;;;25.27;;
30458;SDS011;17254;50.976;7.034;2023-04-08T00:18:05;47.57;;;25.57;;
30458;SDS011;17254;50.976;7.034;2023-04-08T00:18:12;47.70;;;25.53;;
30458;SDS011;17254;50.976;7.034;2023-04-08T00:18:19;48.60;;;25.47;;
30458;SDS011;17254;50.976;7.034;2023-04-08T00:18:25;49.33;;;25.83;;
30458;SDS011;17254;50.976;7.034;2023-04-08T00:18:31;49.43;;;25.87;;
30458;SDS011;17254;50.976;7.034;2023-04-08T00:18:37;48.47;;;25.70;;
30458;SDS011;17254;50.976;7.034;2023-04-08T00:18:43;47.13;;;25.30;;
30458;SDS011;17254;50.976;7.034;2023-04-08T00:18:49;46.17;;;25.20;;
30458;SDS011;17254;50.976;7.034;2023-04-08T00:18:56;45.72;;;25.16;;
30458;SDS011;17254;50.976;7.034;2023-04-08T00:19:02;44.80;;;24.85;;
30458;SDS011;17254;50.976;7.034;2023-04-08T00:19:07;44.10;;;24.98;;
30458;SDS011;17254;50.976;7.034;2023-04-08T00:19:13;44.55;;;25.17;;
30458;SDS011;17254;50.976;7.034;2023-04-08T00:19:19;44.15;;;25.02;;
30458;SDS011;17254;50.976;7.034;2023-04-08T00:19:25;43.78;;;24.75;;
30458;SDS011;17254;50.976;7.034;2023-04-08T00:19:31;43.50;;;24.87;;
30458;SDS011;17254;50.976;7.034;2023-04-08T00:19:37;44.24;;;24.88;;
30458;SDS011;17254;50.976;7.034;2023-04-08T00:19:44;42.83;;;24.43;;
30458;SDS011;17254;50.976;7.034;2023-04-08T00:19:50;43.55;;;24.17;;
30458;SDS011;17254;50.976;7.034;2023-04-08T00:19:57;46.53;;;24.23;;
30458;SDS011;17254;50.976;7.034;2023-04-08T00:20:03;46.33;;;23.93;;
30458;SDS011;17254;50.976;7.034;2023-04-08T00:20:10;46.00;;;24.03;;
30458;SDS011;17254;50.976;7.034;2023-04-08T00:20:16;45.63;;;24.33;;
30458;SDS011;17254;50.976;7.034;2023-04-08T00:20:22;44.83;;;24.15;;
30458;SDS011;17254;50.976;7.034;2023-04-08T00:20:28;41.13;;;23.58;;
30458;SDS011;17254;50.976;7.034;2023-04-08T00:20:34;40.58;;;23.50;;
30458;SDS011;17254;50.976;7.034;2023-04-08T00:20:42;40.72;;;23.22;;
30458;SDS011;17254;50.976;7.034;2023-04-08T00:20:48;42.50;;;22.97;;
30458;SDS011;17254;50.976;7.034;2023-04-08T00:20:54;44.23;;;23.47;;
30458;SDS011;17254;50.976;7.034;2023-04-08T00:21:01;44.73;;;23.67;;
30458;SDS011;17254;50.976;7.034;2023-04-08T00:21:07;46.97;;;23.63;;
30458;SDS011;17254;50.976;7.034;2023-04-08T00:21:13;46.90;;;24.24;;
30458;SDS011;17254;50.976;7.034;2023-04-08T00:21:22;45.87;;;24.53;;
30458;SDS011;17254;50.976;7.034;2023-04-08T00:21:28;45.20;;;24.60;;
30458;SDS011;17254;50.976;7.034;2023-04-08T00:21:33;45.38;;;24.92;;
30458;SDS011;17254;50.976;7.034;2023-04-08T00:21:40;45.60;;;24.48;;
30458;SDS011;17254;50.976;7.034;2023-04-08T00:21:45;45.60;;;24.40;;
30458;SDS011;17254;50.976;7.034;2023-04-08T00:21:52;46.47;;;24.03;;
30458;SDS011;17254;50.976;7.034;2023-04-08T00:21:58;47.97;;;24.27;;
30458;SDS011;17254;50.976;7.034;2023-04-08T00:22:05;47.66;;;24.00;;
30458;SDS011;17254;50.976;7.034;2023-04-08T00:22:12;46.76;;;23.92;;
30458;SDS011;17254;50.976;7.034;2023-04-08T00:22:18;48.03;;;24.33;;
30458;SDS011;17254;50.976;7.034;2023-04-08T00:22:24;46.13;;;24.60;;
30458;SDS011;17254;50.976;7.034;2023-04-08T00:22:30;44.78;;;24.42;;
30458;SDS011;17254;50.976;7.034;2023-04-08T00:22:36;43.95;;;24.73;;
30458;SDS011;17254;50.976;7.034;2023-04-08T00:22:42;44.30;;;25.10;;
30458;SDS011;17254;50.976;7.034;2023-04-08T00:22:48;44.07;;;24.87;;
30458;SDS011;17254;50.976;7.034;2023-04-08T00:22:54;44.30;;;24.92;;
30458;SDS011;17254;50.976;7.034;2023-04-08T00:23:00;48.55;;;25.40;;
30458;SDS011;17254;50.976;7.034;2023-04-08T00:23:06;49.75;;;25.77;;
30458;SDS011;17254;50.976;7.034;2023-04-08T00:23:12;49.58;;;25.60;;
30458;SDS011;17254;50.976;7.034;2023-04-08T00:23:19;49.33;;;25.40;;
30458;SDS011;17254;50.976;7.034;2023-04-08T00:23:26;49.62;;;25.66;;
30458;SDS011;17254;50.976;7.034;2023-04-08T00:23:32;47.88;;;25.40;;
30458;SDS011;17254;50.976;7.034;2023-04-08T00:23:39;49.97;;;24.87;;
30458;SDS011;17254;50.976;7.034;2023-04-08T00:23:45;51.17;;;25.33;;
30458;SDS011;17254;50.976;7.034;2023-04-08T00:23:51;51.53;;;25.48;;
30458;SDS011;17254;50.976;7.034;2023-04-08T00:23:57;52.92;;;25.35;;
30458;SDS011;17254;50.976;7.034;2023-04-08T00:24:03;50.78;;;25.55;;
30458;SDS011;17254;50.976;7.034;2023-04-08T00:24:11;49.38;;;25.48;;
30458;SDS011;17254;50.976;7.034;2023-04-08T00:24:17;48.93;;;25.40;;
30458;SDS011;17254;50.976;7.034;2023-04-08T00:24:23;48.56;;;25.30;;
30458;SDS011;17254;50.976;7.034;2023-04-08T00:24:29;47.30;;;24.63;;
30458;SDS011;17254;50.976;7.034;2023-04-08T00:24:36;49.43;;;24.70;;
30458;SDS011;17254;50.976;7.034;2023-04-08T00:24:42;49.92;;;25.10;;
30458;SDS011;17254;50.976;7.034;2023-04-08T00:24:48;49.47;;;25.13;;
30458;SDS011;17254;50.976;7.034;2023-04-08T00:24:54;49.22;;;25.23;;
30458;SDS011;17254;50.976;7.034;2023-04-08T00:24:59;49.28;;;25.33;;
30458;SDS011;17254;50.976;7.034;2023-04-08T00:25:06;47.50;;;24.93;;
30458;SDS011;17254;50.976;7.034;2023-04-08T00:25:13;45.34;;;24.16;;
30458;SDS011;17254;50.976;7.034;2023-04-08T00:25:22;45.35;;;23.50;;
30458;SDS011;17254;50.976;7.034;2023-04-08T00:25:28;45.10;;;23.76;;
30458;SDS011;17254;50.976;7.034;2023-04-08T00:25:35;45.03;;;23.77;;
30458;SDS011;17254;50.976;7.034;2023-04-08T00:25:41;45.30;;;23.73;;
30458;SDS011;17254;50.976;7.034;2023-04-08T00:25:47;45.10;;;24.00;;
30458;SDS011;17254;50.976;7.034;2023-04-08T00:25:53;45.50;;;23.83;;
30458;SDS011;17254;50.976;7.034;2023-04-08T00:25:59;45.00;;;24.03;;
30458;SDS011;17254;50.976;7.034;2023-04-08T00:26:05;45.65;;;24.80;;
30458;SDS011;17254;50.976;7.034;2023-04-08T00:26:11;45.47;;;25.10;;
30458;SDS011;17254;50.976;7.034;2023-04-08T00:26:18;47.27;;;26.00;;
30458;SDS011;17254;50.976;7.034;2023-04-08T00:26:25;46.97;;;25.73;;
30458;SDS011;17254;50.976;7.034;2023-04-08T00:26:31;46.00;;;25.23;;
30458;SDS011;17254;50.976;7.034;2023-04-08T00:26:38;45.70;;;24.97;;
30458;SDS011;17254;50.976;7.034;2023-04-08T00:26:45;45.70;;;24.63;;
30458;SDS011;17254;50.976;7.034;2023-04-08T00:26:51;45.43;;;24.13;;
30458;SDS011;17254;50.976;7.034;2023-04-08T00:26:57;45.10;;;24.10;;
30458;SDS011;17254;50.976;7.034;2023-04-08T00:27:03;45.63;;;24.23;;
30458;SDS011;17254;50.976;7.034;2023-04-08T00:27:08;45.90;;;24.15;;
30458;SDS011;17254;50.976;7.034;2023-04-08T00:27:14;44.63;;;24.00;;
30458;SDS011;17254;50.976;7.034;2023-04-08T00:27:21;43.60;;;24.05;;
30458;SDS011;17254;50.976;7.034;2023-04-08T00:27:29;43.85;;;23.75;;
30458;SDS011;17254;50.976;7.034;2023-04-08T00:27:35;42.50;;;23.45;;
30458;SDS011;17254;50.976;7.034;2023-04-08T00:27:41;42.42;;;23.55;;
30458;SDS011;17254;50.976;7.034;2023-04-08T00:27:47;44.13;;;23.83;;
30458;SDS011;17254;50.976;7.034;2023-04-08T00:27:53;44.30;;;24.10;;
30458;SDS011;17254;50.976;7.034;2023-04-08T00:27:59;43.83;;;24.30;;
30458;SDS011;17254;50.976;7.034;2023-04-08T00:28:06;45.22;;;24.50;;
30458;SDS011;17254;50.976;7.034;2023-04-08T00:28:13;46.62;;;24.34;;
30458;SDS011;17254;50.976;7.034;2023-04-08T00:28:21;44.83;;;23.93;;
30458;SDS011;17254;50.976;7.034;2023-04-08T00:28:27;44.83;;;23.83;;
30458;SDS011;17254;50.976;7.034;2023-04-08T00:28:33;44.88;;;23.98;;
30458;SDS011;17254;50.976;7.034;2023-04-08T00:28:40;43.13;;;23.83;;
30458;SDS011;17254;50.976;7.034;2023-04-08T00:28:46;43.27;;;23.93;;
30458;SDS011;17254;50.976;7.034;2023-04-08T00:28:53;44.45;;;23.98;;
30458;SDS011;17254;50.976;7.034;2023-04-08T00:28:59;44.35;;;23.65;;
30458;SDS011;17254;50.976;7.034;2023-04-08T00:29:05;45.10;;;23.77;;
30458;SDS011;17254;50.976;7.034;2023-04-08T00:29:11;44.90;;;23.80;;
30458;SDS011;17254;50.976;7.034;2023-04-08T00:29:17;44.80;;;23.83;;
30458;SDS011;17254;50.976;7.034;2023-04-08T00:29:23;44.00;;;24.03;;
30458;SDS011;17254;50.976;7.034;2023-04-08T00:29:29;44.40;;;23.80;;
30458;SDS011;17254;50.976;7.034;2023-04-08T00:29:35;43.70;;;23.40;;
30458;SDS011;17254;50.976;7.034;2023-04-08T00:29:41;44.37;;;23.27;;
30458;SDS011;17254;50.976;7.034;2023-04-08T00:29:47;44.33;;;23.30;;
30458;SDS011;17254;50.976;7.034;2023-04-08T00:29:54;44.42;;;23.36;;
30458;SDS011;17254;50.976;7.034;2023-04-08T00:30:01;44.07;;;23.93;;
30458;SDS011;17254;50.976;7.034;2023-04-08T00:30:08;43.43;;;24.03;;
30458;SDS011;17254;50.976;7.034;2023-04-08T00:30:14;43.04;;;24.42;;
30458;SDS011;17254;50.976;7.034;2023-04-08T00:30:20;43.00;;;24.25;;
30458;SDS011;17254;50.976;7.034;2023-04-08T00:30:26;42.83;;;24.27;;
30458;SDS011;17254;50.976;7.034;2023-04-08T00:30:32;43.17;;;24.30;;
30458;SDS011;17254;50.976;7.034;2023-04-08T00:30:40;43.58;;;24.22;;
30458;SDS011;17254;50.976;7.034;2023-04-08T00:30:46;43.55;;;23.85;;
30458;SDS011;17254;50.976;7.034;2023-04-08T00:30:52;44.55;;;24.35;;
30458;SDS011;17254;50.976;7.034;2023-04-08T00:30:58;44.30;;;24.33;;
30458;SDS011;17254;50.976;7.034;2023-04-08T00:31:05;45.54;;;24.42;;
30458;SDS011;17254;50.976;7.034;2023-04-08T00:31:11;44.95;;;24.13;;
30458;SDS011;17254;50.976;7.034;2023-04-08T00:31:17;43.67;;;24.25;;
30458;SDS011;17254;50.976;7.034;2023-04-08T00:31:24;42.70;;;24.17;;
30458;SDS011;17254;50.976;7.034;2023-04-08T00:31:30;43.80;;;24.43;;
30458;SDS011;17254;50.976;7.034;2023-04-08T00:31:37;42.88;;;24.78;;
30458;SDS011;17254;50.976;7.034;2023-04-08T00:31:43;43.10;;;25.00;;
30458;SDS011;17254;50.976;7.034;2023-04-08T00:31:49;43.70;;;24.90;;
30458;SDS011;17254;50.976;7.034;2023-04-08T00:31:55;44.20;;;24.48;;
30458;SDS011;17254;50.976;7.034;2023-04-08T00:32:01;43.50;;;24.37;;
30458;SDS011;17254;50.976;7.034;2023-04-08T00:32:08;44.40;;;23.93;;
30458;SDS011;17254;50.976;7.034;2023-04-08T00:32:14;44.58;;;24.35;;
30458;SDS011;17254;50.976;7.034;2023-04-08T00:32:20;44.72;;;24.40;;
30458;SDS011;17254;50.976;7.034;2023-04-08T00:32:26;44.65;;;24.38;;
30458;SDS011;17254;50.976;7.034;2023-04-08T00:32:33;44.10;;;24.18;;
30458;SDS011;17254;50.976;7.034;2023-04-08T00:32:39;44.50;;;24.23;;
30458;SDS011;17254;50.976;7.034;2023-04-08T00:32:46;45.56;;;23.82;;
30458;SDS011;17254;50.976;7.034;2023-04-08T00:32:52;46.60;;;23.57;;
30458;SDS011;17254;50.976;7.034;2023-04-08T00:32:59;47.56;;;23.94;;
30458;SDS011;17254;50.976;7.034;2023-04-08T00:33:05;47.30;;;24.15;;
30458;SDS011;17254;50.976;7.034;2023-04-08T00:33:13;47.54;;;24.80;;
30458;SDS011;17254;50.976;7.034;2023-04-08T00:33:19;47.86;;;25.34;;
30458;SDS011;17254;50.976;7.034;2023-04-08T00:33:26;47.53;;;25.70;;
30458;SDS011;17254;50.976;7.034;2023-04-08T00:33:32;46.08;;;25.58;;
30458;SDS011;17254;50.976;7.034;2023-04-08T00:33:38;47.37;;;25.47;;
30458;SDS011;17254;50.976;7.034;2023-04-08T00:33:44;46.50;;;25.30;;
30458;SDS011;17254;50.976;7.034;2023-04-08T00:33:50;46.47;;;25.50;;
30458;SDS011;17254;50.976;7.034;2023-04-08T00:33:56;47.60;;;25.53;;
30458;SDS011;17254;50.976;7.034;2023-04-08T00:34:03;49.48;;;25.53;;
30458;SDS011;17254;50.976;7.034;2023-04-08T00:34:10;49.33;;;25.88;;
30458;SDS011;17254;50.976;7.034;2023-04-08T00:34:16;49.70;;;25.53;;
30458;SDS011;17254;50.976;7.034;2023-04-08T00:34:22;48.58;;;25.25;;
30458;SDS011;17254;50.976;7.034;2023-04-08T00:34:28;47.37;;;24.83;;
30458;SDS011;17254;50.976;7.034;2023-04-08T00:34:34;47.42;;;24.95;;
30458;SDS011;17254;50.976;7.034;2023-04-08T00:34:41;46.75;;;24.10;;
30458;SDS011;17254;50.976;7.034;2023-04-08T00:34:48;47.14;;;23.76;;
30458;SDS011;17254;50.976;7.034;2023-04-08T00:34:55;48.28;;;23.86;;
30458;SDS011;17254;50.976;7.034;2023-04-08T00:35:01;48.70;;;24.10;;
30458;SDS011;17254;50.976;7.034;2023-04-08T00:35:08;52.07;;;24.60;;
30458;SDS011;17254;50.976;7.034;2023-04-08T00:35:14;50.35;;;25.17;;
30458;SDS011;17254;50.976;7.034;2023-04-08T00:35:20;48.92;;;25.27;;
30458;SDS011;17254;50.976;7.034;2023-04-08T00:35:27;45.70;;;24.48;;
30458;SDS011;17254;50.976;7.034;2023-04-08T00:35:34;43.52;;;24.24;;
30458;SDS011;17254;50.976;7.034;2023-04-08T00:35:40;44.13;;;24.38;;
30458;SDS011;17254;50.976;7.034;2023-04-08T00:35:46;45.58;;;24.38;;
30458;SDS011;17254;50.976;7.034;2023-04-08T00:35:52;48.35;;;24.60;;
30458;SDS011;17254;50.976;7.034;2023-04-08T00:35:59;50.40;;;25.13;;
30458;SDS011;17254;50.976;7.034;2023-04-08T00:36:05;49.10;;;25.10;;
30458;SDS011;17254;50.976;7.034;2023-04-08T00:36:12;46.97;;;24.95;;
30458;SDS011;17254;50.976;7.034;2023-04-08T00:36:18;46.23;;;24.97;;
30458;SDS011;17254;50.976;7.034;2023-04-08T00:36:24;45.58;;;25.00;;
30458;SDS011;17254;50.976;7.034;2023-04-08T00:36:31;45.78;;;25.35;;
30458;SDS011;17254;50.976;7.034;2023-04-08T00:36:37;46.75;;;25.38;;
30458;SDS011;17254;50.976;7.034;2023-04-08T00:36:44;45.20;;;25.07;;
30458;SDS011;17254;50.976;7.034;2023-04-08T00:36:51;45.72;;;25.12;;